首页
METAR-TAF:

METAR-TAF

机场 :

Oshawa Executive Airport

奧沙華, 安大略省, 加拿大

纬度: 43-55-22N, 经度: 78-53-48W, 海拔: 140米

当前天气观测

该预报发布于1小时和8分钟前的20:00 UTC
风速15节,风向西北,有时为22节阵风
温度 24°C
湿度 38%
气压 1012 hPa
能見度: 14.5公里
散云层高于6500英尺
散云层高于8200英尺

METAR: CYOO 062000Z AUTO 31015G22KT 9SM SCT065 SCT082 24/09 A2987 RMK SLP114 DENSITY ALT 1600FT

时间: 17:08 (21:08 UTC)

预报

该预报发布于1小时和30分钟前的19:38 UTC
预报有效从06日的 20点(UTC)到 07日的 08点(UTC)
风速12节,风向西北,有时为22节阵风
能見度: 10公里
散云层高于7000英尺
多云层高于10000英尺
从 07日的 0000点(UTC)
风速10节,风向北转西北,有时为20节阵风
能見度: 10公里
散云层高于5000英尺
成为
从 07日的 02点(UTC)到 07日的 04点(UTC)
风速8节,风向北转西北
成为
从 07日的 05点(UTC)到 07日的 07点(UTC)
风速8节,风向

TAF: CYOO 061938Z 0620/0708 31012G22KT P6SM SCT070 BKN100 FM070000 33010G20KT P6SM SCT050 BECMG 0702/0704 33008KT BECMG 0705/0707 36008KT RMK FCST BASED ON AUTO OBS. NXT FCST BY 070200Z

超过4000个机场的气象观测和天气预报(METAR&TAF报告)。

可查询的气象台以黄色和红色小点在地图上表示。

将鼠标移到小点上方,可查看气象台名称。

然后点击查看天气观测和预报。

如需切换地图:点击带黑十字的绿色按钮放大地图;点击带横线的绿色按钮缩小地图;或者点击绿色箭头查看邻近地区的地图。


METAR-TAF: